Time;durP1;ratioP1;P1;durP2;ratioP2;P2;SDS_P1;SDS_P2;PMS_P1;PMS_P2;Temp;Humidity;BMP_temperature;BMP_pressure;BME280_temperature;BME280_humidity;BME280_pressure;Samples;Min_cycle;Max_cycle;Signal;HPM_P1;HPM_P2
2022/12/05 00:00:24;;;;;;;9.90;8.90;;;19.60;63.20;;;;;;4987634;28;20203;-77
2022/12/05 00:02:52;;;;;;;11.63;9.50;;;19.50;63.00;;;;;;4990530;28;20560;-77
2022/12/05 00:05:18;;;;;;;9.70;8.70;;;19.50;63.40;;;;;;5007492;28;20200;-77
2022/12/05 00:07:45;;;;;;;11.57;10.32;;;19.50;63.60;;;;;;5003776;28;20636;-77
2022/12/05 00:10:13;;;;;;;11.98;8.85;;;19.40;63.20;;;;;;4992251;28;20205;-82
2022/12/05 00:12:40;;;;;;;11.15;9.60;;;19.40;62.40;;;;;;4991387;28;20209;-77
2022/12/05 00:15:11;;;;;;;11.73;8.25;;;19.30;65.00;;;;;;4992116;28;20204;-80
2022/12/05 00:17:38;;;;;;;19.05;11.45;;;19.40;65.80;;;;;;4992405;28;20193;-80
2022/12/05 00:20:08;;;;;;;11.32;9.40;;;19.50;67.00;;;;;;5002877;28;20208;-79
2022/12/05 00:22:37;;;;;;;11.93;8.93;;;19.70;67.30;;;;;;5000879;28;20196;-79
2022/12/05 00:25:04;;;;;;;10.38;9.30;;;19.80;67.10;;;;;;4999102;28;20201;-76
2022/12/05 00:27:31;;;;;;;9.27;8.38;;;19.90;67.10;;;;;;4998027;28;20216;-79
2022/12/05 00:29:58;;;;;;;12.80;8.60;;;20.00;67.00;;;;;;4988663;28;20193;-79
2022/12/05 00:32:24;;;;;;;9.82;8.43;;;19.90;67.20;;;;;;4994161;28;20198;-79
2022/12/05 00:34:51;;;;;;;9.55;8.05;;;20.00;67.20;;;;;;4998794;28;20207;-80
2022/12/05 00:37:20;;;;;;;10.07;9.00;;;20.00;67.10;;;;;;4989862;28;20595;-79
2022/12/05 00:39:47;;;;;;;10.98;7.70;;;20.10;66.90;;;;;;4987716;28;20229;-80
2022/12/05 00:42:14;;;;;;;9.30;8.07;;;20.00;67.00;;;;;;4993523;28;20693;-79
2022/12/05 00:44:41;;;;;;;10.23;8.52;;;20.10;67.20;;;;;;4993582;28;20203;-80
2022/12/05 00:47:08;;;;;;;8.73;7.50;;;20.10;67.40;;;;;;4995640;28;20648;-79
2022/12/05 00:49:34;;;;;;;9.50;8.38;;;20.10;67.50;;;;;;4994652;28;20193;-80
2022/12/05 00:52:01;;;;;;;9.98;7.88;;;20.10;67.20;;;;;;4987263;28;20617;-80
2022/12/05 00:54:29;;;;;;;11.38;8.00;;;20.20;67.30;;;;;;4989767;28;20212;-78
2022/12/05 00:56:56;;;;;;;10.82;8.35;;;20.20;67.40;;;;;;4991940;28;20201;-78
2022/12/05 00:59:23;;;;;;;9.52;8.63;;;20.20;67.50;;;;;;4996494;28;22154;-78
2022/12/05 01:01:51;;;;;;;8.93;7.63;;;20.20;67.40;;;;;;4990297;28;20201;-75
2022/12/05 01:04:20;;;;;;;10.75;8.15;;;20.30;67.10;;;;;;4998452;28;20192;-79
2022/12/05 01:06:47;;;;;;;8.60;7.75;;;20.30;67.20;;;;;;4990865;28;20203;-80
2022/12/05 01:09:16;;;;;;;8.73;7.93;;;20.30;67.50;;;;;;4995442;28;20679;-79
2022/12/05 01:11:44;;;;;;;8.77;7.28;;;20.30;67.50;;;;;;4993276;28;20660;-79
2022/12/05 01:14:13;;;;;;;8.30;7.15;;;20.30;67.50;;;;;;4993187;28;20193;-79
2022/12/05 01:16:42;;;;;;;8.68;7.63;;;20.30;67.40;;;;;;4999939;28;20306;-79
2022/12/05 01:19:12;;;;;;;10.18;8.75;;;20.30;67.50;;;;;;4995136;28;20676;-79
2022/12/05 01:21:39;;;;;;;8.57;6.85;;;20.30;67.40;;;;;;5004407;28;20212;-79
2022/12/05 01:24:06;;;;;;;9.55;8.18;;;20.40;67.60;;;;;;4993353;28;20212;-78
2022/12/05 01:26:33;;;;;;;10.70;7.78;;;20.30;67.50;;;;;;4998595;28;20565;-78
2022/12/05 01:29:02;;;;;;;8.82;7.30;;;20.40;67.60;;;;;;4994547;28;20555;-79
2022/12/05 01:31:30;;;;;;;11.48;9.35;;;20.40;67.40;;;;;;5001467;28;20189;-76
2022/12/05 01:33:59;;;;;;;8.45;7.72;;;20.40;67.40;;;;;;4996236;28;20264;-78
2022/12/05 01:36:27;;;;;;;7.93;6.82;;;20.40;67.60;;;;;;4992268;28;20197;-79
2022/12/05 01:38:54;;;;;;;9.85;8.75;;;20.40;67.60;;;;;;4987023;28;20229;-78
2022/12/05 01:41:23;;;;;;;7.85;6.88;;;20.40;68.40;;;;;;4993516;28;20229;-78
2022/12/05 01:43:58;;;;;;;6.68;5.93;;;20.40;67.50;;;;;;4999485;28;20284;-75
2022/12/05 01:46:28;;;;;;;8.40;7.60;;;20.40;67.60;;;;;;4977594;28;20709;-79
2022/12/05 01:49:00;;;;;;;7.82;7.07;;;20.40;67.80;;;;;;4984649;28;20319;-77
2022/12/05 01:51:27;;;;;;;7.85;6.97;;;20.40;67.70;;;;;;4990135;28;20292;-78
2022/12/05 01:53:55;;;;;;;8.25;6.93;;;20.40;67.60;;;;;;4985048;28;20200;-79
2022/12/05 01:56:22;;;;;;;8.38;6.97;;;20.50;67.60;;;;;;4992081;28;20207;-79
2022/12/05 01:58:49;;;;;;;7.93;7.13;;;20.50;67.50;;;;;;4998955;28;20220;-80
2022/12/05 02:01:18;;;;;;;8.38;7.00;;;20.40;67.60;;;;;;4992262;28;20955;-80
2022/12/05 02:03:50;;;;;;;8.43;7.40;;;20.40;67.60;;;;;;4992983;28;20568;-80
2022/12/05 02:06:17;;;;;;;7.55;6.75;;;20.50;67.80;;;;;;4997087;28;20197;-80
2022/12/05 02:08:45;;;;;;;7.78;7.10;;;20.40;67.60;;;;;;5008460;28;20207;-81
2022/12/05 02:11:12;;;;;;;7.78;6.90;;;20.50;67.70;;;;;;4997759;28;20307;-80
2022/12/05 02:13:52;;;;;;;8.27;6.90;;;20.40;67.70;;;;;;4995505;28;20643;-80
2022/12/05 02:16:31;;;;;;;6.43;5.63;;;20.50;67.80;;;;;;4995012;28;20695;-80
2022/12/05 02:19:13;;;;;;;7.30;5.95;;;20.50;67.90;;;;;;4995164;28;20223;-80
2022/12/05 02:22:19;;;;;;;6.63;5.88;;;20.50;67.80;;;;;;5007589;28;20201;-80
2022/12/05 02:28:55;;;;;;;7.35;5.75;;;20.50;67.90;;;;;;4950221;28;20743;-79
2022/12/05 02:31:29;;;;;;;6.50;5.90;;;20.40;67.90;;;;;;4992885;28;20185;-79
2022/12/05 02:34:05;;;;;;;8.18;7.03;;;20.50;67.80;;;;;;4994672;28;20209;-76
2022/12/05 02:36:39;;;;;;;6.82;5.45;;;20.50;67.80;;;;;;4990497;28;20197;-78
2022/12/05 02:39:14;;;;;;;6.80;5.80;;;20.50;67.80;;;;;;4995999;28;20243;-78
2022/12/05 02:41:49;;;;;;;7.20;6.53;;;20.50;67.80;;;;;;4995143;28;20212;-78
2022/12/05 02:44:20;;;;;;;8.65;7.32;;;20.50;67.70;;;;;;4988827;28;20197;-76
2022/12/05 02:46:52;;;;;;;8.93;7.15;;;20.60;67.80;;;;;;4991691;28;20683;-78
2022/12/05 02:49:22;;;;;;;7.25;6.00;;;20.50;67.80;;;;;;4991746;28;20233;-79
2022/12/05 02:51:52;;;;;;;8.40;6.60;;;20.50;68.00;;;;;;4994947;28;20285;-79
2022/12/05 02:54:23;;;;;;;7.00;5.90;;;20.50;67.90;;;;;;4992076;28;20202;-78
2022/12/05 02:56:52;;;;;;;7.05;6.35;;;20.50;67.90;;;;;;4998139;28;20579;-78
2022/12/05 02:59:19;;;;;;;6.32;5.18;;;20.60;67.90;;;;;;4992740;28;20225;-78
2022/12/05 03:01:48;;;;;;;6.97;6.28;;;20.50;67.90;;;;;;4990870;28;20201;-76
2022/12/05 03:04:18;;;;;;;8.88;7.40;;;20.50;67.90;;;;;;4993018;28;20288;-79
2022/12/05 03:06:49;;;;;;;6.60;5.75;;;20.60;67.90;;;;;;4998488;28;20617;-79
2022/12/05 03:09:20;;;;;;;8.45;6.68;;;20.50;67.90;;;;;;4989285;28;20657;-79
2022/12/05 03:11:51;;;;;;;6.85;5.50;;;20.60;67.90;;;;;;4993419;28;20675;-79
2022/12/05 03:14:22;;;;;;;6.90;5.88;;;20.60;67.70;;;;;;4993081;28;20202;-80
2022/12/05 03:16:50;;;;;;;6.70;6.00;;;20.60;67.60;;;;;;4982839;28;20225;-79
2022/12/05 03:19:23;;;;;;;6.75;5.70;;;20.60;67.80;;;;;;4995421;28;20209;-79
2022/12/05 03:21:57;;;;;;;5.00;4.60;;;20.60;67.90;;;;;;5004695;28;20498;-75
2022/12/05 03:24:25;;;;;;;5.90;5.30;;;20.60;67.80;;;;;;4992231;28;20572;-80
2022/12/05 03:27:01;;;;;;;7.93;6.00;;;20.60;67.90;;;;;;4994989;28;20456;-79
2022/12/05 03:29:36;;;;;;;6.10;5.60;;;20.60;67.80;;;;;;4989228;28;20940;-79
2022/12/05 03:32:08;;;;;;;6.32;5.63;;;20.60;67.80;;;;;;4997225;28;20643;-80
2022/12/05 03:34:48;;;;;;;6.83;6.17;;;20.60;67.90;;;;;;4993456;28;20197;-74
2022/12/05 03:37:21;;;;;;;5.78;5.28;;;20.60;67.90;;;;;;5000210;28;20470;-75
2022/12/05 03:39:54;;;;;;;6.45;5.85;;;20.50;68.00;;;;;;4990899;28;20232;-74
2022/12/05 03:42:28;;;;;;;6.68;5.30;;;20.50;68.00;;;;;;4988895;28;20197;-74
2022/12/05 03:45:00;;;;;;;5.70;5.20;;;20.50;67.90;;;;;;4986172;28;20572;-75
2022/12/05 03:47:33;;;;;;;6.13;5.53;;;20.50;67.90;;;;;;4999780;28;20921;-75
2022/12/05 03:50:07;;;;;;;5.50;5.00;;;20.60;68.10;;;;;;4985171;28;20467;-74
2022/12/05 03:52:39;;;;;;;6.23;5.63;;;20.60;67.90;;;;;;4991532;28;20198;-74
2022/12/05 03:55:08;;;;;;;6.45;5.75;;;20.60;67.90;;;;;;5002273;28;20513;-75
2022/12/05 03:57:42;;;;;;;7.22;5.97;;;20.60;68.00;;;;;;5000091;28;20204;-74
2022/12/05 04:00:14;;;;;;;5.88;5.28;;;20.60;68.10;;;;;;4992628;28;20220;-74
2022/12/05 04:02:45;;;;;;;5.60;4.75;;;20.60;68.10;;;;;;5006577;28;20201;-74
2022/12/05 04:05:19;;;;;;;7.40;5.25;;;20.60;68.00;;;;;;5001445;28;20196;-74
2022/12/05 04:07:48;;;;;;;5.40;4.90;;;20.60;67.90;;;;;;5004540;28;20687;-76
2022/12/05 04:10:19;;;;;;;5.83;5.30;;;20.60;68.00;;;;;;4992829;28;20212;-76
2022/12/05 04:12:47;;;;;;;6.57;5.20;;;20.60;67.90;;;;;;4995662;28;21273;-76
2022/12/05 04:15:19;;;;;;;5.50;5.00;;;20.60;67.80;;;;;;4994726;28;20946;-76
2022/12/05 04:17:49;;;;;;;6.93;5.45;;;20.50;68.00;;;;;;5011113;28;20201;-76
2022/12/05 04:23:06;;;;;;;6.85;5.45;;;20.50;68.10;;;;;;4988668;28;20259;-76
2022/12/05 04:25:38;;;;;;;6.50;5.22;;;20.50;68.20;;;;;;4990582;28;20205;-75
2022/12/05 04:28:18;;;;;;;6.00;4.63;;;20.50;68.10;;;;;;4998162;28;20196;-76
2022/12/05 04:30:49;;;;;;;5.95;4.80;;;20.50;68.00;;;;;;4994038;28;20208;-76
2022/12/05 04:33:19;;;;;;;5.78;5.28;;;20.60;68.00;;;;;;4998880;28;20194;-76
2022/12/05 04:35:53;;;;;;;4.83;4.40;;;20.70;68.10;;;;;;5010821;28;20204;-78
2022/12/05 04:38:24;;;;;;;5.10;4.70;;;20.60;68.10;;;;;;4989502;28;20487;-77
2022/12/05 04:40:57;;;;;;;5.77;5.17;;;20.60;68.30;;;;;;4991760;28;20217;-76
2022/12/05 04:43:26;;;;;;;5.68;4.70;;;20.60;68.20;;;;;;4989150;28;20463;-76
2022/12/05 04:45:56;;;;;;;4.43;4.03;;;20.60;68.10;;;;;;4987413;28;20200;-76
2022/12/05 04:48:25;;;;;;;5.38;4.88;;;20.60;68.30;;;;;;5001602;28;20663;-76
2022/12/05 04:50:55;;;;;;;5.28;4.63;;;20.50;68.10;;;;;;4999818;28;20189;-76
2022/12/05 04:53:23;;;;;;;5.85;5.35;;;20.60;68.10;;;;;;4996269;28;20255;-77
2022/12/05 04:55:52;;;;;;;6.00;5.40;;;20.60;68.20;;;;;;4986064;28;20664;-77
2022/12/05 04:58:20;;;;;;;6.55;5.88;;;20.60;68.20;;;;;;4997391;28;20549;-77
2022/12/05 05:00:54;;;;;;;4.93;4.43;;;20.60;68.20;;;;;;4988300;28;20220;-76
2022/12/05 05:03:24;;;;;;;5.10;4.60;;;20.60;68.30;;;;;;4997273;28;20208;-77
2022/12/05 05:05:54;;;;;;;5.28;4.78;;;20.60;68.20;;;;;;5001186;28;20205;-76
2022/12/05 05:08:23;;;;;;;4.47;4.07;;;20.60;68.20;;;;;;4986925;28;20201;-76
2022/12/05 05:11:00;;;;;;;5.22;4.75;;;20.60;68.20;;;;;;4988978;28;20560;-76
2022/12/05 05:13:27;;;;;;;7.03;5.30;;;20.60;68.40;;;;;;4991466;28;20215;-76
2022/12/05 05:15:54;;;;;;;5.05;4.55;;;20.60;68.40;;;;;;4987648;28;20475;-76
2022/12/05 05:18:20;;;;;;;4.55;4.03;;;20.60;68.30;;;;;;5005666;28;20196;-76
2022/12/05 05:20:47;;;;;;;5.00;4.50;;;20.60;68.30;;;;;;5000170;28;20627;-76
2022/12/05 05:23:15;;;;;;;5.07;4.65;;;20.60;68.40;;;;;;4990450;28;20460;-77
2022/12/05 05:25:42;;;;;;;5.70;4.90;;;20.60;67.60;;;;;;4988638;28;20684;-77
2022/12/05 05:28:08;;;;;;;5.15;4.50;;;20.60;68.20;;;;;;4998344;28;20459;-76
2022/12/05 05:30:35;;;;;;;5.80;5.20;;;20.60;68.20;;;;;;4990778;28;20589;-76
2022/12/05 05:33:02;;;;;;;4.88;4.47;;;20.60;68.20;;;;;;4996774;28;20459;-77
2022/12/05 05:35:29;;;;;;;5.33;4.57;;;20.60;68.30;;;;;;4999084;28;20184;-77
2022/12/05 05:37:55;;;;;;;5.73;5.13;;;20.60;68.40;;;;;;4988160;28;20472;-76
2022/12/05 05:40:23;;;;;;;5.00;4.60;;;20.60;68.40;;;;;;4992987;28;20551;-77
2022/12/05 05:42:50;;;;;;;4.88;4.38;;;20.60;68.40;;;;;;4989972;28;20457;-76
2022/12/05 05:45:18;;;;;;;5.60;4.90;;;20.60;68.30;;;;;;4981116;28;20205;-76
2022/12/05 05:47:45;;;;;;;5.47;4.40;;;20.70;68.20;;;;;;4989785;28;20201;-76
2022/12/05 05:50:12;;;;;;;4.80;3.60;;;20.70;68.00;;;;;;4992577;28;20459;-77
2022/12/05 05:52:39;;;;;;;4.57;4.17;;;20.80;68.00;;;;;;5003159;28;20468;-76
2022/12/05 05:55:07;;;;;;;4.97;4.37;;;20.80;67.90;;;;;;4995981;28;20942;-76
2022/12/05 05:57:36;;;;;;;4.20;3.80;;;20.80;67.90;;;;;;5010283;28;20934;-77
2022/12/05 06:00:05;;;;;;;4.77;4.20;;;20.80;68.00;;;;;;4995179;28;20835;-76
2022/12/05 06:02:33;;;;;;;4.43;4.03;;;20.90;67.90;;;;;;5001018;28;20811;-77
2022/12/05 06:05:00;;;;;;;4.60;4.10;;;20.90;67.90;;;;;;4992786;28;20210;-76
2022/12/05 06:07:27;;;;;;;5.63;4.80;;;20.90;67.90;;;;;;4996603;28;20971;-76
2022/12/05 06:09:54;;;;;;;5.07;4.57;;;20.90;68.10;;;;;;4983090;28;20536;-76
2022/12/05 06:12:21;;;;;;;6.17;4.97;;;21.00;67.90;;;;;;4990817;28;20532;-76
2022/12/05 06:14:49;;;;;;;5.10;4.60;;;21.00;67.80;;;;;;4983939;28;20452;-77
2022/12/05 06:17:17;;;;;;;4.80;4.40;;;21.00;67.80;;;;;;4996186;28;20474;-76
2022/12/05 06:19:43;;;;;;;4.23;3.87;;;21.00;67.80;;;;;;4996890;28;20986;-77
2022/12/05 06:22:11;;;;;;;4.27;3.93;;;21.00;67.90;;;;;;4996987;28;20451;-77
2022/12/05 06:24:38;;;;;;;4.73;4.33;;;21.00;67.90;;;;;;4992860;28;20471;-76
2022/12/05 06:27:05;;;;;;;5.27;4.77;;;21.00;67.80;;;;;;4997320;28;20518;-77
2022/12/05 06:29:32;;;;;;;4.27;3.87;;;20.90;67.80;;;;;;4984620;28;20461;-76
2022/12/05 06:32:00;;;;;;;6.03;4.80;;;20.90;67.90;;;;;;4991279;28;20978;-76
2022/12/05 06:34:27;;;;;;;4.93;4.53;;;20.90;67.90;;;;;;4988832;28;20935;-77
2022/12/05 06:36:53;;;;;;;4.27;3.90;;;20.90;68.10;;;;;;4981266;28;20974;-76
2022/12/05 06:39:20;;;;;;;8.07;5.47;;;20.90;68.80;;;;;;4983930;28;20461;-76
2022/12/05 06:41:47;;;;;;;4.77;4.27;;;20.90;68.10;;;;;;4991086;28;20943;-77
2022/12/05 06:44:13;;;;;;;4.60;4.20;;;20.80;68.10;;;;;;4997410;28;20861;-76
2022/12/05 06:46:40;;;;;;;4.53;4.13;;;20.80;68.30;;;;;;4987219;28;20197;-77
2022/12/05 06:49:13;;;;;;;4.50;4.10;;;20.80;68.30;;;;;;4991723;28;20564;-76
2022/12/05 06:51:40;;;;;;;4.83;4.43;;;20.80;68.30;;;;;;5003090;28;20487;-76
2022/12/05 06:54:07;;;;;;;5.00;4.30;;;20.80;68.30;;;;;;4987549;28;20452;-77
2022/12/05 06:56:34;;;;;;;4.80;4.40;;;20.80;68.30;;;;;;4988827;28;20456;-77
2022/12/05 06:59:00;;;;;;;4.70;4.30;;;20.80;68.40;;;;;;5009182;28;20802;-75
2022/12/05 07:01:39;;;;;;;3.90;3.50;;;20.70;68.20;;;;;;4994473;28;20984;-75
2022/12/05 07:04:11;;;;;;;4.23;3.93;;;20.80;68.30;;;;;;4990322;28;20583;-76
2022/12/05 07:06:39;;;;;;;4.97;4.47;;;20.80;68.30;;;;;;4990147;28;20975;-76
2022/12/05 07:09:07;;;;;;;4.87;4.47;;;20.80;68.30;;;;;;4991451;28;20239;-76
2022/12/05 07:11:34;;;;;;;4.57;4.17;;;20.80;68.30;;;;;;4990543;28;20463;-76
2022/12/05 07:14:01;;;;;;;4.40;4.00;;;20.80;68.50;;;;;;4991741;28;20460;-76
2022/12/05 07:16:27;;;;;;;4.87;4.07;;;20.80;68.40;;;;;;4995140;28;20490;-76
2022/12/05 07:18:55;;;;;;;4.17;3.80;;;20.80;68.30;;;;;;4986873;28;20815;-76
2022/12/05 07:21:23;;;;;;;4.67;3.90;;;20.80;68.40;;;;;;4997876;28;20474;-76
2022/12/05 07:23:50;;;;;;;4.50;4.10;;;20.80;68.40;;;;;;4990106;28;20467;-76
2022/12/05 07:26:19;;;;;;;5.17;4.67;;;20.80;68.30;;;;;;4990328;28;20459;-76
2022/12/05 07:28:46;;;;;;;6.13;4.07;;;20.80;68.30;;;;;;4993956;28;20459;-76
2022/12/05 07:31:15;;;;;;;7.10;4.60;;;20.80;68.40;;;;;;4991199;28;20939;-75
2022/12/05 07:33:42;;;;;;;4.30;3.90;;;20.80;68.40;;;;;;5003658;28;20463;-75
2022/12/05 07:36:11;;;;;;;3.70;3.37;;;20.80;68.40;;;;;;4991728;28;20463;-75
2022/12/05 07:38:40;;;;;;;4.25;3.85;;;20.80;68.40;;;;;;5002360;28;20554;-76
2022/12/05 07:41:07;;;;;;;6.33;4.33;;;20.80;68.40;;;;;;4991394;28;20239;-76
2022/12/05 07:43:34;;;;;;;5.00;4.60;;;20.70;68.50;;;;;;5002263;28;20953;-75
2022/12/05 07:46:02;;;;;;;3.97;3.57;;;20.70;68.50;;;;;;4984548;28;20197;-75
2022/12/05 07:48:29;;;;;;;4.47;4.07;;;20.70;68.50;;;;;;4993362;28;20464;-75
2022/12/05 07:51:00;;;;;;;5.50;4.27;;;20.70;68.70;;;;;;4996776;28;20619;-75
2022/12/05 07:53:27;;;;;;;4.67;4.00;;;20.60;68.50;;;;;;4984881;28;20545;-75
2022/12/05 07:55:55;;;;;;;3.50;3.20;;;20.60;68.60;;;;;;4991623;28;20486;-75
2022/12/05 07:58:22;;;;;;;5.80;3.80;;;20.60;68.70;;;;;;5006363;28;20955;-75
2022/12/05 08:00:49;;;;;;;3.93;3.50;;;20.60;68.80;;;;;;4979864;28;20485;-75
2022/12/05 08:03:15;;;;;;;7.40;4.00;;;20.60;68.80;;;;;;4996478;28;20461;-75
2022/12/05 08:05:42;;;;;;;3.77;3.37;;;20.60;68.80;;;;;;5012319;28;20447;-75
2022/12/05 08:08:09;;;;;;;4.00;3.70;;;20.70;68.80;;;;;;4988886;28;20448;-76
2022/12/05 08:10:35;;;;;;;4.10;3.70;;;20.70;68.70;;;;;;4988973;28;20456;-76
2022/12/05 08:13:03;;;;;;;5.15;4.72;;;20.70;68.70;;;;;;4990678;28;20448;-76
2022/12/05 08:15:30;;;;;;;4.37;3.97;;;20.70;68.50;;;;;;4984737;28;22241;-75
2022/12/05 08:17:57;;;;;;;4.43;4.03;;;20.80;68.40;;;;;;5001011;28;20927;-76
2022/12/05 08:20:24;;;;;;;4.30;3.57;;;20.80;68.50;;;;;;4988163;28;21025;-76
2022/12/05 08:22:53;;;;;;;4.07;3.67;;;20.90;68.30;;;;;;4991090;28;20464;-75
2022/12/05 08:25:19;;;;;;;4.03;3.73;;;20.90;68.20;;;;;;4995661;28;20509;-75
2022/12/05 08:27:46;;;;;;;4.13;3.73;;;20.90;68.40;;;;;;4991372;28;20456;-75
2022/12/05 08:30:14;;;;;;;3.80;3.40;;;20.90;68.40;;;;;;4985219;28;20467;-76
2022/12/05 08:32:41;;;;;;;4.37;3.97;;;20.90;69.20;;;;;;4997892;28;20560;-76
2022/12/05 08:35:09;;;;;;;4.53;4.13;;;20.90;68.30;;;;;;4991521;28;20455;-76
2022/12/05 08:37:36;;;;;;;4.03;3.63;;;20.90;68.40;;;;;;4988566;28;21222;-76
2022/12/05 08:40:03;;;;;;;4.20;3.80;;;20.90;68.30;;;;;;4982577;28;20464;-75
2022/12/05 08:42:30;;;;;;;5.67;4.00;;;20.90;68.40;;;;;;4981630;28;20958;-76
2022/12/05 08:44:57;;;;;;;3.80;3.50;;;20.90;68.50;;;;;;4982405;28;20456;-76
2022/12/05 08:47:25;;;;;;;4.43;4.03;;;20.90;68.50;;;;;;4981791;28;20986;-76
2022/12/05 08:49:51;;;;;;;4.03;3.67;;;20.90;68.50;;;;;;4984973;28;20472;-79
2022/12/05 08:52:18;;;;;;;4.50;4.10;;;20.80;68.80;;;;;;4989221;28;20444;-80
2022/12/05 08:54:45;;;;;;;3.90;3.60;;;20.90;68.80;;;;;;4992786;28;20445;-77
2022/12/05 08:57:11;;;;;;;5.10;4.57;;;21.00;68.80;;;;;;4990612;28;20464;-76
2022/12/05 08:59:38;;;;;;;5.23;4.40;;;21.00;68.70;;;;;;4992013;28;20465;-76
2022/12/05 09:02:05;;;;;;;4.70;4.30;;;21.00;68.90;;;;;;4992042;28;20491;-76
2022/12/05 09:04:33;;;;;;;4.80;4.30;;;21.00;69.00;;;;;;4991182;28;20479;-76
2022/12/05 09:07:02;;;;;;;4.33;3.93;;;20.80;69.60;;;;;;4985398;28;20981;-76
2022/12/05 09:09:31;;;;;;;4.83;4.43;;;20.80;69.60;;;;;;4988013;28;20471;-76
2022/12/05 09:11:59;;;;;;;7.20;4.73;;;20.80;69.60;;;;;;4985393;28;20514;-78
2022/12/05 09:14:31;;;;;;;5.80;4.83;;;20.90;70.10;;;;;;4985630;28;20460;-80
2022/12/05 09:16:59;;;;;;;9.10;4.60;;;20.90;69.80;;;;;;5001869;28;20487;-79
2022/12/05 09:19:27;;;;;;;7.90;4.30;;;20.90;70.30;;;;;;4989978;28;20534;-79
2022/12/05 09:22:00;;;;;;;9.63;4.60;;;21.00;70.50;;;;;;4982747;28;20476;-86
2022/12/05 09:24:27;;;;;;;5.23;4.70;;;21.10;70.60;;;;;;4980816;28;20460;-82
2022/12/05 09:26:54;;;;;;;7.40;4.80;;;21.00;70.70;;;;;;4979907;28;20457;-83
2022/12/05 09:29:20;;;;;;;5.75;4.93;;;21.00;70.90;;;;;;4983662;28;20484;-84
2022/12/05 09:31:51;;;;;;;5.20;4.70;;;21.00;71.00;;;;;;4982520;28;20859;-79
2022/12/05 09:34:18;;;;;;;4.77;4.37;;;21.00;71.00;;;;;;4987817;28;21133;-78
2022/12/05 09:36:48;;;;;;;4.88;4.47;;;21.20;70.90;;;;;;4987508;28;20472;-78
2022/12/05 09:39:16;;;;;;;6.80;4.00;;;21.20;70.70;;;;;;4983080;28;20232;-79
2022/12/05 09:42:19;;;;;;;6.13;5.27;;;21.20;70.70;;;;;;4989424;28;20584;-81
2022/12/05 09:44:56;;;;;;;4.67;4.30;;;21.20;70.70;;;;;;4985268;28;20524;-80
2022/12/05 09:47:34;;;;;;;5.00;3.93;;;21.20;70.90;;;;;;4991458;28;20435;-81
2022/12/05 09:50:12;;;;;;;5.27;4.77;;;21.20;70.90;;;;;;4986931;28;20432;-80
2022/12/05 09:52:41;;;;;;;4.57;4.17;;;21.20;70.80;;;;;;4997999;28;20450;-80
2022/12/05 09:55:14;;;;;;;4.90;4.50;;;21.30;70.80;;;;;;4994472;28;20827;-84
2022/12/05 09:57:47;;;;;;;5.77;3.80;;;21.20;70.70;;;;;;4982826;28;20460;-83
2022/12/05 10:00:15;;;;;;;5.30;4.80;;;21.30;70.80;;;;;;4982017;28;20452;-83
2022/12/05 10:02:50;;;;;;;6.10;4.40;;;21.30;70.70;;;;;;4985053;28;20960;-83
2022/12/05 10:05:22;;;;;;;4.67;4.07;;;21.20;70.70;;;;;;4993425;28;20451;-84
2022/12/05 10:08:01;;;;;;;5.07;4.20;;;21.20;71.00;;;;;;4999270;28;20458;-83
2022/12/05 10:10:39;;;;;;;4.70;4.30;;;21.20;70.80;;;;;;4999085;28;20452;-78
2022/12/05 10:13:25;;;;;;;5.35;4.93;;;21.10;71.20;;;;;;4986558;28;20468;-78
2022/12/05 10:15:55;;;;;;;5.80;4.20;;;21.10;71.20;;;;;;4992839;28;20227;-78
2022/12/05 10:18:31;;;;;;;4.80;4.33;;;21.10;71.20;;;;;;4995844;28;20471;-78
2022/12/05 10:21:03;;;;;;;4.80;4.30;;;21.10;71.20;;;;;;4994036;28;20462;-77
2022/12/05 10:23:35;;;;;;;4.75;4.25;;;21.10;71.00;;;;;;4984277;28;20468;-77
2022/12/05 10:26:09;;;;;;;5.60;5.00;;;21.10;70.80;;;;;;5004093;28;20284;-77
2022/12/05 10:28:41;;;;;;;5.50;4.20;;;21.10;70.60;;;;;;4996168;28;20448;-77
2022/12/05 10:31:13;;;;;;;5.30;4.67;;;21.10;70.40;;;;;;4988339;28;20943;-78
2022/12/05 10:33:47;;;;;;;5.33;4.53;;;21.10;70.60;;;;;;4993362;28;20468;-77
2022/12/05 10:36:14;;;;;;;6.40;5.70;;;21.10;70.50;;;;;;4996641;28;20459;-78
2022/12/05 10:38:42;;;;;;;8.37;5.07;;;21.00;70.40;;;;;;4993226;28;20768;-76
2022/12/05 10:41:13;;;;;;;5.13;4.73;;;21.00;70.40;;;;;;4987012;28;20478;-78
2022/12/05 10:43:42;;;;;;;4.63;4.20;;;21.00;70.50;;;;;;4995275;28;20954;-77
2022/12/05 10:46:10;;;;;;;5.10;4.60;;;21.00;70.50;;;;;;4988811;28;20455;-78
2022/12/05 10:48:38;;;;;;;5.83;5.33;;;21.00;70.50;;;;;;4998218;28;21006;-77
2022/12/05 10:51:06;;;;;;;4.68;4.28;;;21.00;70.50;;;;;;4996586;28;20459;-78
2022/12/05 10:53:40;;;;;;;5.37;4.73;;;21.00;70.40;;;;;;4994606;28;20561;-78
2022/12/05 10:56:45;;;;;;;5.10;4.60;;;21.00;70.30;;;;;;4990687;28;20457;-77
2022/12/05 10:59:15;;;;;;;5.33;4.13;;;21.00;70.30;;;;;;4987285;28;20798;-77
2022/12/05 11:01:46;;;;;;;4.87;4.43;;;21.00;70.20;;;;;;4997681;28;20479;-78
2022/12/05 11:04:24;;;;;;;4.37;3.97;;;21.00;70.20;;;;;;4991400;28;20464;-77
2022/12/05 11:06:53;;;;;;;4.93;4.50;;;20.90;70.10;;;;;;4990408;28;20452;-77
2022/12/05 11:09:22;;;;;;;5.10;4.03;;;21.00;70.40;;;;;;4992856;28;20482;-78
2022/12/05 11:12:14;;;;;;;5.00;4.50;;;21.00;70.40;;;;;;5000332;28;20214;-78
2022/12/05 11:14:54;;;;;;;5.13;4.63;;;21.00;70.40;;;;;;4988322;28;20468;-76
2022/12/05 11:17:25;;;;;;;5.23;4.50;;;20.90;70.30;;;;;;4999934;28;20477;-77
2022/12/05 11:19:52;;;;;;;5.23;4.80;;;21.00;70.30;;;;;;4993302;28;20461;-77
2022/12/05 11:22:18;;;;;;;6.10;5.53;;;21.00;70.20;;;;;;4991426;28;20777;-78
2022/12/05 11:24:45;;;;;;;5.73;4.40;;;21.00;70.40;;;;;;4985916;28;20468;-77
2022/12/05 11:27:28;;;;;;;5.10;3.83;;;21.00;70.60;;;;;;4997647;28;20467;-77
2022/12/05 11:29:59;;;;;;;4.83;4.43;;;21.00;70.70;;;;;;4992139;28;20830;-77
2022/12/05 11:32:27;;;;;;;4.93;4.43;;;21.00;70.70;;;;;;4992916;28;20869;-77
2022/12/05 11:35:00;;;;;;;5.40;4.88;;;21.00;70.70;;;;;;4991220;28;20856;-77
2022/12/05 11:37:34;;;;;;;5.10;4.60;;;21.00;70.90;;;;;;4997584;28;20541;-77
2022/12/05 11:40:02;;;;;;;6.03;4.27;;;20.90;70.90;;;;;;4989813;28;20464;-78
2022/12/05 11:42:41;;;;;;;4.60;4.18;;;20.80;71.40;;;;;;4985222;28;20480;-78
2022/12/05 11:45:35;;;;;;;5.87;5.27;;;20.90;71.40;;;;;;4989127;28;20201;-84
2022/12/05 11:48:16;;;;;;;5.77;4.17;;;21.00;72.20;;;;;;4989450;28;20460;-84
2022/12/05 11:50:47;;;;;;;6.40;4.03;;;21.10;71.90;;;;;;4990393;28;20439;-84
2022/12/05 11:53:31;;;;;;;4.72;4.35;;;21.10;71.80;;;;;;4984282;28;20449;-84
2022/12/05 11:56:09;;;;;;;4.38;4.00;;;21.10;72.00;;;;;;4993399;28;20184;-81
2022/12/05 11:58:54;;;;;;;5.00;4.50;;;21.20;72.00;;;;;;4990068;28;20184;-84
2022/12/05 12:01:31;;;;;;;5.40;4.88;;;21.20;72.00;;;;;;4988907;28;20487;-82
2022/12/05 12:04:29;;;;;;;4.43;4.03;;;21.20;71.90;;;;;;4991085;28;20207;-85
2022/12/05 12:07:07;;;;;;;3.83;3.53;;;21.20;72.00;;;;;;4998668;28;20827;-83
2022/12/05 12:09:45;;;;;;;4.90;3.67;;;21.30;72.00;;;;;;4989082;28;20464;-85
2022/12/05 12:12:22;;;;;;;5.10;4.70;;;21.30;71.80;;;;;;4989418;28;20444;-83
2022/12/05 12:15:01;;;;;;;6.70;4.50;;;21.30;71.80;;;;;;4992535;28;20196;-84
2022/12/05 12:17:38;;;;;;;5.00;4.60;;;21.40;71.80;;;;;;4991246;28;21295;-84
2022/12/05 12:20:26;;;;;;;5.23;4.73;;;21.30;71.70;;;;;;4999645;28;20951;-83
2022/12/05 12:23:06;;;;;;;4.83;4.43;;;21.40;71.70;;;;;;4982891;28;20986;-82
2022/12/05 12:25:42;;;;;;;4.50;3.87;;;21.40;71.80;;;;;;4989785;28;20454;-81
2022/12/05 12:28:23;;;;;;;3.65;3.35;;;21.40;71.90;;;;;;4991850;28;20514;-82
2022/12/05 12:31:06;;;;;;;4.10;3.63;;;21.30;71.80;;;;;;4987150;28;20682;-83
2022/12/05 12:33:36;;;;;;;4.40;4.00;;;21.40;71.80;;;;;;4991778;28;20492;-83
2022/12/05 12:36:13;;;;;;;4.40;3.83;;;21.40;72.00;;;;;;4995013;28;20939;-83
2022/12/05 12:39:01;;;;;;;3.90;3.60;;;21.40;71.90;;;;;;4995976;28;20471;-83
2022/12/05 12:41:45;;;;;;;3.83;3.07;;;21.40;72.00;;;;;;4990965;28;20688;-83
2022/12/05 12:44:40;;;;;;;4.00;3.57;;;21.30;71.90;;;;;;4987952;28;21070;-83
2022/12/05 12:47:16;;;;;;;4.97;4.57;;;21.40;72.00;;;;;;4986640;28;20464;-83
2022/12/05 12:49:54;;;;;;;3.60;3.30;;;21.40;72.00;;;;;;4993447;28;20456;-83
2022/12/05 12:52:24;;;;;;;3.60;3.30;;;21.40;72.00;;;;;;5001287;28;20807;-85
2022/12/05 12:55:17;;;;;;;3.57;3.27;;;21.40;72.10;;;;;;4995231;28;20467;-84
2022/12/05 12:57:58;;;;;;;4.20;3.83;;;21.40;71.90;;;;;;4994418;28;21041;-84
2022/12/05 13:00:36;;;;;;;3.80;3.50;;;21.40;72.00;;;;;;4987002;28;20959;-84
2022/12/05 13:03:09;;;;;;;3.53;3.23;;;21.40;72.10;;;;;;4993711;28;20487;-81
2022/12/05 13:05:42;;;;;;;3.50;3.20;;;21.30;72.00;;;;;;5002908;28;20446;-82
2022/12/05 13:08:15;;;;;;;4.27;3.87;;;21.40;72.10;;;;;;4988863;28;20901;-81
2022/12/05 13:10:44;;;;;;;4.00;3.70;;;21.40;72.10;;;;;;4993124;28;20463;-82